sensor_id;sensor_type;location;lat;lon;timestamp;P1;durP1;ratioP1;P2;durP2;ratioP2
68633;SDS011;55625;47.072;22.192;2023-03-11T00:00:19;2.27;;;1.30;;
68633;SDS011;55625;47.072;22.192;2023-03-11T00:02:48;1.92;;;0.95;;
68633;SDS011;55625;47.072;22.192;2023-03-11T00:05:36;1.65;;;0.73;;
68633;SDS011;55625;47.072;22.192;2023-03-11T00:08:06;4.88;;;1.35;;
68633;SDS011;55625;47.072;22.192;2023-03-11T00:10:36;3.95;;;0.93;;
68633;SDS011;55625;47.072;22.192;2023-03-11T00:13:05;2.10;;;1.20;;
68633;SDS011;55625;47.072;22.192;2023-03-11T00:15:34;4.05;;;1.98;;
68633;SDS011;55625;47.072;22.192;2023-03-11T00:18:01;2.13;;;1.27;;
68633;SDS011;55625;47.072;22.192;2023-03-11T00:20:28;3.60;;;1.50;;
68633;SDS011;55625;47.072;22.192;2023-03-11T00:23:03;3.75;;;1.50;;
68633;SDS011;55625;47.072;22.192;2023-03-11T00:25:32;4.90;;;2.63;;
68633;SDS011;55625;47.072;22.192;2023-03-11T00:28:01;4.72;;;2.45;;
68633;SDS011;55625;47.072;22.192;2023-03-11T00:30:28;6.35;;;3.10;;
68633;SDS011;55625;47.072;22.192;2023-03-11T00:32:55;3.50;;;1.40;;
68633;SDS011;55625;47.072;22.192;2023-03-11T00:35:23;10.35;;;2.03;;
68633;SDS011;55625;47.072;22.192;2023-03-11T00:37:56;3.13;;;1.57;;
68633;SDS011;55625;47.072;22.192;2023-03-11T00:40:25;3.75;;;1.60;;
68633;SDS011;55625;47.072;22.192;2023-03-11T00:42:54;3.65;;;1.77;;
68633;SDS011;55625;47.072;22.192;2023-03-11T00:45:20;4.82;;;1.98;;
68633;SDS011;55625;47.072;22.192;2023-03-11T00:47:46;7.15;;;1.55;;
68633;SDS011;55625;47.072;22.192;2023-03-11T00:50:14;4.77;;;1.83;;
68633;SDS011;55625;47.072;22.192;2023-03-11T00:52:44;3.50;;;1.50;;
68633;SDS011;55625;47.072;22.192;2023-03-11T00:55:12;2.17;;;0.75;;
68633;SDS011;55625;47.072;22.192;2023-03-11T00:57:40;2.92;;;0.73;;
68633;SDS011;55625;47.072;22.192;2023-03-11T01:00:07;1.00;;;0.20;;
68633;SDS011;55625;47.072;22.192;2023-03-11T01:02:37;2.20;;;0.70;;
68633;SDS011;55625;47.072;22.192;2023-03-11T01:05:03;19.08;;;1.40;;
68633;SDS011;55625;47.072;22.192;2023-03-11T01:07:30;1.25;;;0.45;;
68633;SDS011;55625;47.072;22.192;2023-03-11T01:09:57;1.15;;;0.55;;
68633;SDS011;55625;47.072;22.192;2023-03-11T01:12:24;1.93;;;0.90;;
68633;SDS011;55625;47.072;22.192;2023-03-11T01:14:50;12.93;;;0.40;;
68633;SDS011;55625;47.072;22.192;2023-03-11T01:17:16;1.20;;;0.43;;
68633;SDS011;55625;47.072;22.192;2023-03-11T01:19:41;9.10;;;0.93;;
68633;SDS011;55625;47.072;22.192;2023-03-11T01:22:08;1.52;;;0.75;;
68633;SDS011;55625;47.072;22.192;2023-03-11T01:24:35;1.17;;;0.20;;
68633;SDS011;55625;47.072;22.192;2023-03-11T01:27:01;1.98;;;0.80;;
68633;SDS011;55625;47.072;22.192;2023-03-11T01:29:26;2.07;;;1.20;;
68633;SDS011;55625;47.072;22.192;2023-03-11T01:31:52;1.15;;;0.43;;
68633;SDS011;55625;47.072;22.192;2023-03-11T01:34:18;2.73;;;1.10;;
68633;SDS011;55625;47.072;22.192;2023-03-11T01:36:44;1.17;;;0.47;;
68633;SDS011;55625;47.072;22.192;2023-03-11T01:39:10;1.45;;;0.73;;
68633;SDS011;55625;47.072;22.192;2023-03-11T01:41:35;1.80;;;0.83;;
68633;SDS011;55625;47.072;22.192;2023-03-11T01:44:01;1.30;;;0.50;;
68633;SDS011;55625;47.072;22.192;2023-03-11T01:46:34;2.67;;;0.40;;
68633;SDS011;55625;47.072;22.192;2023-03-11T01:49:26;2.78;;;0.30;;
68633;SDS011;55625;47.072;22.192;2023-03-11T01:52:02;2.27;;;1.07;;
68633;SDS011;55625;47.072;22.192;2023-03-11T01:54:36;1.83;;;0.68;;
68633;SDS011;55625;47.072;22.192;2023-03-11T01:57:04;1.65;;;1.10;;
68633;SDS011;55625;47.072;22.192;2023-03-11T01:59:36;4.13;;;0.88;;
68633;SDS011;55625;47.072;22.192;2023-03-11T02:02:20;3.88;;;0.93;;
68633;SDS011;55625;47.072;22.192;2023-03-11T02:04:52;1.93;;;0.73;;
68633;SDS011;55625;47.072;22.192;2023-03-11T02:07:18;1.98;;;0.88;;
68633;SDS011;55625;47.072;22.192;2023-03-11T02:09:44;1.88;;;0.73;;
68633;SDS011;55625;47.072;22.192;2023-03-11T02:12:10;2.35;;;0.88;;
68633;SDS011;55625;47.072;22.192;2023-03-11T02:14:40;2.60;;;1.23;;
68633;SDS011;55625;47.072;22.192;2023-03-11T02:17:12;2.13;;;1.48;;
68633;SDS011;55625;47.072;22.192;2023-03-11T02:19:50;1.60;;;0.52;;
68633;SDS011;55625;47.072;22.192;2023-03-11T02:22:39;3.13;;;1.83;;
68633;SDS011;55625;47.072;22.192;2023-03-11T02:28:00;1.60;;;0.87;;
68633;SDS011;55625;47.072;22.192;2023-03-11T02:30:31;3.45;;;2.17;;
68633;SDS011;55625;47.072;22.192;2023-03-11T02:33:00;2.97;;;1.52;;
68633;SDS011;55625;47.072;22.192;2023-03-11T02:35:26;4.57;;;1.08;;
68633;SDS011;55625;47.072;22.192;2023-03-11T02:37:52;2.47;;;1.05;;
68633;SDS011;55625;47.072;22.192;2023-03-11T02:42:47;1.48;;;0.70;;
68633;SDS011;55625;47.072;22.192;2023-03-11T02:45:29;1.67;;;0.88;;
68633;SDS011;55625;47.072;22.192;2023-03-11T02:47:56;2.75;;;1.02;;
68633;SDS011;55625;47.072;22.192;2023-03-11T02:50:23;1.93;;;0.87;;
68633;SDS011;55625;47.072;22.192;2023-03-11T02:52:51;1.50;;;0.77;;
68633;SDS011;55625;47.072;22.192;2023-03-11T02:55:17;1.67;;;0.73;;
68633;SDS011;55625;47.072;22.192;2023-03-11T02:57:44;1.70;;;0.82;;
68633;SDS011;55625;47.072;22.192;2023-03-11T03:00:12;2.77;;;1.27;;
68633;SDS011;55625;47.072;22.192;2023-03-11T03:02:44;3.58;;;1.38;;
68633;SDS011;55625;47.072;22.192;2023-03-11T03:05:11;3.10;;;2.05;;
68633;SDS011;55625;47.072;22.192;2023-03-11T03:07:37;6.18;;;1.75;;
68633;SDS011;55625;47.072;22.192;2023-03-11T03:10:04;2.55;;;1.58;;
68633;SDS011;55625;47.072;22.192;2023-03-11T03:12:32;3.27;;;1.10;;
68633;SDS011;55625;47.072;22.192;2023-03-11T03:14:58;2.90;;;1.73;;
68633;SDS011;55625;47.072;22.192;2023-03-11T03:17:24;2.70;;;1.52;;
68633;SDS011;55625;47.072;22.192;2023-03-11T03:19:50;6.97;;;1.75;;
68633;SDS011;55625;47.072;22.192;2023-03-11T03:22:15;7.30;;;1.60;;
68633;SDS011;55625;47.072;22.192;2023-03-11T03:24:41;2.83;;;1.35;;
68633;SDS011;55625;47.072;22.192;2023-03-11T03:27:07;3.07;;;2.00;;
68633;SDS011;55625;47.072;22.192;2023-03-11T03:29:33;2.83;;;0.95;;
68633;SDS011;55625;47.072;22.192;2023-03-11T03:31:59;2.78;;;1.42;;
68633;SDS011;55625;47.072;22.192;2023-03-11T03:34:25;3.27;;;1.90;;
68633;SDS011;55625;47.072;22.192;2023-03-11T03:36:50;3.42;;;1.48;;
68633;SDS011;55625;47.072;22.192;2023-03-11T03:39:16;3.38;;;1.45;;
68633;SDS011;55625;47.072;22.192;2023-03-11T03:41:43;2.43;;;1.67;;
68633;SDS011;55625;47.072;22.192;2023-03-11T03:44:09;2.90;;;1.77;;
68633;SDS011;55625;47.072;22.192;2023-03-11T03:46:35;3.08;;;1.15;;
68633;SDS011;55625;47.072;22.192;2023-03-11T03:49:02;3.35;;;2.28;;
68633;SDS011;55625;47.072;22.192;2023-03-11T03:51:28;4.05;;;2.17;;
68633;SDS011;55625;47.072;22.192;2023-03-11T03:53:54;6.00;;;3.37;;
68633;SDS011;55625;47.072;22.192;2023-03-11T03:56:20;3.92;;;2.47;;
68633;SDS011;55625;47.072;22.192;2023-03-11T03:58:45;5.77;;;2.03;;
68633;SDS011;55625;47.072;22.192;2023-03-11T04:01:12;5.00;;;2.47;;
68633;SDS011;55625;47.072;22.192;2023-03-11T04:03:38;3.05;;;1.27;;
68633;SDS011;55625;47.072;22.192;2023-03-11T04:06:08;4.38;;;2.50;;
68633;SDS011;55625;47.072;22.192;2023-03-11T04:08:42;3.13;;;2.63;;
68633;SDS011;55625;47.072;22.192;2023-03-11T04:11:08;3.00;;;1.73;;
68633;SDS011;55625;47.072;22.192;2023-03-11T04:13:34;2.45;;;1.05;;
68633;SDS011;55625;47.072;22.192;2023-03-11T04:16:04;2.35;;;1.42;;
68633;SDS011;55625;47.072;22.192;2023-03-11T04:18:31;2.85;;;1.85;;
68633;SDS011;55625;47.072;22.192;2023-03-11T04:20:58;3.20;;;2.00;;
68633;SDS011;55625;47.072;22.192;2023-03-11T04:23:24;3.50;;;1.73;;
68633;SDS011;55625;47.072;22.192;2023-03-11T04:25:50;3.15;;;2.33;;
68633;SDS011;55625;47.072;22.192;2023-03-11T04:28:16;3.23;;;1.90;;
68633;SDS011;55625;47.072;22.192;2023-03-11T04:30:42;4.18;;;2.25;;
68633;SDS011;55625;47.072;22.192;2023-03-11T04:33:07;3.30;;;2.50;;
68633;SDS011;55625;47.072;22.192;2023-03-11T04:35:33;4.23;;;2.57;;
68633;SDS011;55625;47.072;22.192;2023-03-11T04:38:01;4.80;;;2.00;;
68633;SDS011;55625;47.072;22.192;2023-03-11T04:40:27;4.28;;;2.47;;
68633;SDS011;55625;47.072;22.192;2023-03-11T04:42:53;3.50;;;2.20;;
68633;SDS011;55625;47.072;22.192;2023-03-11T04:45:19;3.10;;;2.40;;
68633;SDS011;55625;47.072;22.192;2023-03-11T04:47:48;3.45;;;1.98;;
68633;SDS011;55625;47.072;22.192;2023-03-11T04:50:15;5.55;;;2.60;;
68633;SDS011;55625;47.072;22.192;2023-03-11T04:52:42;4.95;;;3.63;;
68633;SDS011;55625;47.072;22.192;2023-03-11T04:55:08;3.73;;;2.47;;
68633;SDS011;55625;47.072;22.192;2023-03-11T04:57:34;4.65;;;2.60;;
68633;SDS011;55625;47.072;22.192;2023-03-11T05:00:01;4.10;;;2.40;;
68633;SDS011;55625;47.072;22.192;2023-03-11T05:02:33;3.05;;;1.92;;
68633;SDS011;55625;47.072;22.192;2023-03-11T05:04:59;3.72;;;2.05;;
68633;SDS011;55625;47.072;22.192;2023-03-11T05:07:25;4.27;;;1.80;;
68633;SDS011;55625;47.072;22.192;2023-03-11T05:09:51;5.00;;;2.58;;
68633;SDS011;55625;47.072;22.192;2023-03-11T05:12:17;6.68;;;2.03;;
68633;SDS011;55625;47.072;22.192;2023-03-11T05:14:43;3.30;;;2.67;;
68633;SDS011;55625;47.072;22.192;2023-03-11T05:17:09;4.47;;;3.57;;
68633;SDS011;55625;47.072;22.192;2023-03-11T05:19:36;3.15;;;1.50;;
68633;SDS011;55625;47.072;22.192;2023-03-11T05:22:02;2.28;;;1.52;;
68633;SDS011;55625;47.072;22.192;2023-03-11T05:24:29;3.55;;;2.15;;
68633;SDS011;55625;47.072;22.192;2023-03-11T05:26:56;3.60;;;1.77;;
68633;SDS011;55625;47.072;22.192;2023-03-11T05:29:22;4.25;;;1.92;;
68633;SDS011;55625;47.072;22.192;2023-03-11T05:31:49;2.00;;;1.00;;
68633;SDS011;55625;47.072;22.192;2023-03-11T05:34:16;2.97;;;1.63;;
68633;SDS011;55625;47.072;22.192;2023-03-11T05:36:42;4.93;;;2.28;;
68633;SDS011;55625;47.072;22.192;2023-03-11T05:39:09;3.33;;;1.63;;
68633;SDS011;55625;47.072;22.192;2023-03-11T05:41:35;2.83;;;1.58;;
68633;SDS011;55625;47.072;22.192;2023-03-11T05:44:02;1.98;;;1.08;;
68633;SDS011;55625;47.072;22.192;2023-03-11T05:46:28;1.80;;;1.13;;
68633;SDS011;55625;47.072;22.192;2023-03-11T05:48:56;2.85;;;1.33;;
68633;SDS011;55625;47.072;22.192;2023-03-11T05:51:24;2.17;;;0.80;;
68633;SDS011;55625;47.072;22.192;2023-03-11T05:53:50;4.25;;;1.25;;
68633;SDS011;55625;47.072;22.192;2023-03-11T05:56:16;1.65;;;0.68;;
68633;SDS011;55625;47.072;22.192;2023-03-11T05:58:45;3.13;;;0.77;;
68633;SDS011;55625;47.072;22.192;2023-03-11T06:01:12;2.00;;;0.90;;
68633;SDS011;55625;47.072;22.192;2023-03-11T06:03:41;2.47;;;0.52;;
68633;SDS011;55625;47.072;22.192;2023-03-11T06:06:08;1.35;;;0.70;;
68633;SDS011;55625;47.072;22.192;2023-03-11T06:08:36;1.15;;;0.40;;
68633;SDS011;55625;47.072;22.192;2023-03-11T06:11:03;1.48;;;0.80;;
68633;SDS011;55625;47.072;22.192;2023-03-11T06:13:35;2.43;;;0.93;;
68633;SDS011;55625;47.072;22.192;2023-03-11T06:16:02;3.05;;;1.48;;
68633;SDS011;55625;47.072;22.192;2023-03-11T06:18:28;2.35;;;0.40;;
68633;SDS011;55625;47.072;22.192;2023-03-11T06:20:57;1.40;;;0.65;;
68633;SDS011;55625;47.072;22.192;2023-03-11T06:23:24;1.73;;;0.47;;
68633;SDS011;55625;47.072;22.192;2023-03-11T06:26:03;1.03;;;0.73;;
68633;SDS011;55625;47.072;22.192;2023-03-11T06:28:30;1.08;;;0.45;;
68633;SDS011;55625;47.072;22.192;2023-03-11T06:31:05;2.75;;;1.67;;
68633;SDS011;55625;47.072;22.192;2023-03-11T06:33:37;5.70;;;3.30;;
68633;SDS011;55625;47.072;22.192;2023-03-11T06:36:03;1.70;;;1.17;;
68633;SDS011;55625;47.072;22.192;2023-03-11T06:38:30;1.52;;;0.70;;
68633;SDS011;55625;47.072;22.192;2023-03-11T06:41:01;2.58;;;1.52;;
68633;SDS011;55625;47.072;22.192;2023-03-11T06:43:29;2.13;;;1.55;;
68633;SDS011;55625;47.072;22.192;2023-03-11T06:45:56;1.85;;;0.95;;
68633;SDS011;55625;47.072;22.192;2023-03-11T06:48:23;1.33;;;0.50;;
68633;SDS011;55625;47.072;22.192;2023-03-11T06:50:56;2.40;;;0.68;;
68633;SDS011;55625;47.072;22.192;2023-03-11T06:53:23;1.23;;;0.60;;
68633;SDS011;55625;47.072;22.192;2023-03-11T06:56:04;1.08;;;0.20;;
68633;SDS011;55625;47.072;22.192;2023-03-11T06:58:33;1.20;;;0.60;;
68633;SDS011;55625;47.072;22.192;2023-03-11T07:03:37;1.17;;;0.40;;
68633;SDS011;55625;47.072;22.192;2023-03-11T07:06:04;1.30;;;0.50;;
68633;SDS011;55625;47.072;22.192;2023-03-11T07:08:30;1.00;;;0.20;;
68633;SDS011;55625;47.072;22.192;2023-03-11T07:13:28;1.00;;;0.20;;
68633;SDS011;55625;47.072;22.192;2023-03-11T07:16:04;1.00;;;0.45;;
68633;SDS011;55625;47.072;22.192;2023-03-11T07:18:33;1.02;;;0.30;;
68633;SDS011;55625;47.072;22.192;2023-03-11T07:21:01;0.93;;;0.43;;
68633;SDS011;55625;47.072;22.192;2023-03-11T07:23:30;1.30;;;0.68;;
68633;SDS011;55625;47.072;22.192;2023-03-11T07:25:56;1.03;;;0.50;;
68633;SDS011;55625;47.072;22.192;2023-03-11T07:28:22;1.60;;;0.95;;
68633;SDS011;55625;47.072;22.192;2023-03-11T07:30:50;1.13;;;0.40;;
68633;SDS011;55625;47.072;22.192;2023-03-11T07:33:16;0.88;;;0.28;;
68633;SDS011;55625;47.072;22.192;2023-03-11T07:35:43;1.20;;;0.63;;
68633;SDS011;55625;47.072;22.192;2023-03-11T07:38:09;1.07;;;0.30;;
68633;SDS011;55625;47.072;22.192;2023-03-11T07:40:35;3.05;;;0.40;;
68633;SDS011;55625;47.072;22.192;2023-03-11T07:43:01;1.10;;;0.52;;
68633;SDS011;55625;47.072;22.192;2023-03-11T07:45:27;1.00;;;0.30;;
68633;SDS011;55625;47.072;22.192;2023-03-11T07:47:53;1.33;;;0.45;;
68633;SDS011;55625;47.072;22.192;2023-03-11T07:50:19;1.50;;;0.63;;
68633;SDS011;55625;47.072;22.192;2023-03-11T07:52:47;1.10;;;0.50;;
68633;SDS011;55625;47.072;22.192;2023-03-11T07:55:13;1.00;;;0.40;;
68633;SDS011;55625;47.072;22.192;2023-03-11T07:57:40;4.90;;;0.43;;
68633;SDS011;55625;47.072;22.192;2023-03-11T08:00:07;2.83;;;0.80;;
68633;SDS011;55625;47.072;22.192;2023-03-11T08:02:34;1.15;;;0.50;;
68633;SDS011;55625;47.072;22.192;2023-03-11T08:05:00;2.83;;;0.70;;
68633;SDS011;55625;47.072;22.192;2023-03-11T08:07:26;1.10;;;0.32;;
68633;SDS011;55625;47.072;22.192;2023-03-11T08:09:54;1.25;;;0.63;;
68633;SDS011;55625;47.072;22.192;2023-03-11T08:12:20;1.83;;;0.80;;
68633;SDS011;55625;47.072;22.192;2023-03-11T08:14:46;1.10;;;0.57;;
68633;SDS011;55625;47.072;22.192;2023-03-11T08:17:12;1.33;;;0.73;;
68633;SDS011;55625;47.072;22.192;2023-03-11T08:19:38;4.22;;;1.58;;
68633;SDS011;55625;47.072;22.192;2023-03-11T08:22:04;1.87;;;1.10;;
68633;SDS011;55625;47.072;22.192;2023-03-11T08:24:30;1.23;;;0.50;;
68633;SDS011;55625;47.072;22.192;2023-03-11T08:26:55;1.10;;;0.40;;
68633;SDS011;55625;47.072;22.192;2023-03-11T08:29:22;0.90;;;0.30;;
68633;SDS011;55625;47.072;22.192;2023-03-11T08:31:49;3.35;;;0.43;;
68633;SDS011;55625;47.072;22.192;2023-03-11T08:34:15;2.42;;;0.93;;
68633;SDS011;55625;47.072;22.192;2023-03-11T08:36:41;0.90;;;0.20;;
68633;SDS011;55625;47.072;22.192;2023-03-11T08:39:07;2.70;;;0.30;;
68633;SDS011;55625;47.072;22.192;2023-03-11T08:41:34;1.60;;;0.30;;
68633;SDS011;55625;47.072;22.192;2023-03-11T08:44:00;1.10;;;0.60;;
68633;SDS011;55625;47.072;22.192;2023-03-11T08:49:01;1.03;;;0.43;;
68633;SDS011;55625;47.072;22.192;2023-03-11T08:51:28;1.83;;;0.70;;
68633;SDS011;55625;47.072;22.192;2023-03-11T08:53:55;12.68;;;0.88;;
68633;SDS011;55625;47.072;22.192;2023-03-11T08:56:22;1.75;;;0.73;;
68633;SDS011;55625;47.072;22.192;2023-03-11T08:58:48;2.13;;;0.40;;
68633;SDS011;55625;47.072;22.192;2023-03-11T09:01:15;3.37;;;1.40;;
68633;SDS011;55625;47.072;22.192;2023-03-11T09:03:41;1.02;;;0.35;;
68633;SDS011;55625;47.072;22.192;2023-03-11T09:06:08;1.35;;;0.68;;
68633;SDS011;55625;47.072;22.192;2023-03-11T09:08:39;1.08;;;0.52;;
68633;SDS011;55625;47.072;22.192;2023-03-11T09:11:06;2.05;;;0.65;;
68633;SDS011;55625;47.072;22.192;2023-03-11T09:13:33;1.00;;;0.47;;
68633;SDS011;55625;47.072;22.192;2023-03-11T09:16:00;1.10;;;0.50;;
68633;SDS011;55625;47.072;22.192;2023-03-11T09:18:26;2.60;;;0.60;;
68633;SDS011;55625;47.072;22.192;2023-03-11T09:20:53;1.05;;;0.43;;
68633;SDS011;55625;47.072;22.192;2023-03-11T09:23:22;3.58;;;1.13;;
68633;SDS011;55625;47.072;22.192;2023-03-11T09:25:48;1.77;;;1.37;;
68633;SDS011;55625;47.072;22.192;2023-03-11T09:28:14;1.02;;;0.47;;
68633;SDS011;55625;47.072;22.192;2023-03-11T09:30:40;0.93;;;0.40;;
68633;SDS011;55625;47.072;22.192;2023-03-11T09:33:06;2.00;;;0.67;;
68633;SDS011;55625;47.072;22.192;2023-03-11T09:35:32;2.65;;;0.47;;
68633;SDS011;55625;47.072;22.192;2023-03-11T09:37:58;1.27;;;0.63;;
68633;SDS011;55625;47.072;22.192;2023-03-11T09:40:25;6.05;;;0.95;;
68633;SDS011;55625;47.072;22.192;2023-03-11T09:45:44;2.45;;;0.98;;
68633;SDS011;55625;47.072;22.192;2023-03-11T09:51:02;5.22;;;0.45;;
68633;SDS011;55625;47.072;22.192;2023-03-11T09:53:40;1.35;;;0.80;;
68633;SDS011;55625;47.072;22.192;2023-03-11T09:56:14;2.30;;;0.60;;
68633;SDS011;55625;47.072;22.192;2023-03-11T10:01:35;1.60;;;0.68;;
68633;SDS011;55625;47.072;22.192;2023-03-11T10:06:41;0.95;;;0.20;;
68633;SDS011;55625;47.072;22.192;2023-03-11T10:18:15;2.13;;;0.65;;
68633;SDS011;55625;47.072;22.192;2023-03-11T10:26:22;1.35;;;0.32;;
68633;SDS011;55625;47.072;22.192;2023-03-11T10:32:17;1.60;;;0.60;;
68633;SDS011;55625;47.072;22.192;2023-03-11T10:38:49;1.00;;;0.30;;
68633;SDS011;55625;47.072;22.192;2023-03-11T10:41:48;0.95;;;0.35;;
68633;SDS011;55625;47.072;22.192;2023-03-11T10:47:18;2.35;;;0.65;;
68633;SDS011;55625;47.072;22.192;2023-03-11T10:49:48;0.80;;;0.20;;
68633;SDS011;55625;47.072;22.192;2023-03-11T10:52:14;1.10;;;0.43;;
68633;SDS011;55625;47.072;22.192;2023-03-11T10:54:42;2.15;;;0.40;;
68633;SDS011;55625;47.072;22.192;2023-03-11T10:57:32;3.53;;;1.20;;
68633;SDS011;55625;47.072;22.192;2023-03-11T11:00:06;0.93;;;0.22;;
68633;SDS011;55625;47.072;22.192;2023-03-11T11:02:40;2.15;;;0.28;;
68633;SDS011;55625;47.072;22.192;2023-03-11T11:07:49;1.00;;;0.40;;
68633;SDS011;55625;47.072;22.192;2023-03-11T11:10:52;1.10;;;0.65;;
68633;SDS011;55625;47.072;22.192;2023-03-11T11:13:25;3.13;;;0.82;;
68633;SDS011;55625;47.072;22.192;2023-03-11T11:27:03;0.70;;;0.10;;
68633;SDS011;55625;47.072;22.192;2023-03-11T11:29:35;0.90;;;0.20;;
68633;SDS011;55625;47.072;22.192;2023-03-11T11:34:53;1.83;;;0.75;;
68633;SDS011;55625;47.072;22.192;2023-03-11T11:37:47;1.20;;;0.55;;
68633;SDS011;55625;47.072;22.192;2023-03-11T11:40:29;1.70;;;1.50;;
68633;SDS011;55625;47.072;22.192;2023-03-11T11:43:02;1.10;;;0.30;;
68633;SDS011;55625;47.072;22.192;2023-03-11T11:45:43;0.73;;;0.22;;
68633;SDS011;55625;47.072;22.192;2023-03-11T11:48:29;1.00;;;0.40;;
68633;SDS011;55625;47.072;22.192;2023-03-11T11:51:28;2.63;;;0.50;;
68633;SDS011;55625;47.072;22.192;2023-03-11T11:54:23;0.82;;;0.20;;
68633;SDS011;55625;47.072;22.192;2023-03-11T11:57:08;1.10;;;0.60;;
68633;SDS011;55625;47.072;22.192;2023-03-11T11:59:38;1.08;;;0.60;;
68633;SDS011;55625;47.072;22.192;2023-03-11T12:11:06;1.20;;;0.80;;
68633;SDS011;55625;47.072;22.192;2023-03-11T12:16:36;1.00;;;0.28;;
68633;SDS011;55625;47.072;22.192;2023-03-11T12:28:11;0.73;;;0.20;;
68633;SDS011;55625;47.072;22.192;2023-03-11T12:30:55;1.33;;;0.20;;
68633;SDS011;55625;47.072;22.192;2023-03-11T12:36:21;0.90;;;0.40;;
68633;SDS011;55625;47.072;22.192;2023-03-11T12:38:58;0.97;;;0.40;;
68633;SDS011;55625;47.072;22.192;2023-03-11T12:41:48;1.00;;;0.43;;
68633;SDS011;55625;47.072;22.192;2023-03-11T12:49:29;1.60;;;0.85;;
68633;SDS011;55625;47.072;22.192;2023-03-11T12:57:00;0.90;;;0.40;;
68633;SDS011;55625;47.072;22.192;2023-03-11T13:06:19;0.90;;;0.53;;
68633;SDS011;55625;47.072;22.192;2023-03-11T13:09:14;0.70;;;0.13;;
68633;SDS011;55625;47.072;22.192;2023-03-11T13:11:42;1.45;;;0.85;;
68633;SDS011;55625;47.072;22.192;2023-03-11T13:17:41;1.00;;;0.50;;
68633;SDS011;55625;47.072;22.192;2023-03-11T13:19:55;0.93;;;0.37;;
68633;SDS011;55625;47.072;22.192;2023-03-11T13:25:32;1.02;;;0.43;;
68633;SDS011;55625;47.072;22.192;2023-03-11T13:34:17;1.50;;;0.53;;
68633;SDS011;55625;47.072;22.192;2023-03-11T13:39:41;0.77;;;0.20;;
68633;SDS011;55625;47.072;22.192;2023-03-11T13:45:11;1.00;;;0.45;;
68633;SDS011;55625;47.072;22.192;2023-03-11T13:48:04;1.13;;;0.50;;
68633;SDS011;55625;47.072;22.192;2023-03-11T13:51:10;1.17;;;0.43;;
68633;SDS011;55625;47.072;22.192;2023-03-11T13:54:01;0.80;;;0.10;;
68633;SDS011;55625;47.072;22.192;2023-03-11T13:56:55;0.88;;;0.35;;
68633;SDS011;55625;47.072;22.192;2023-03-11T13:59:28;2.22;;;0.38;;
68633;SDS011;55625;47.072;22.192;2023-03-11T14:04:49;1.05;;;0.43;;
68633;SDS011;55625;47.072;22.192;2023-03-11T14:07:28;1.17;;;0.40;;
68633;SDS011;55625;47.072;22.192;2023-03-11T14:13:03;1.00;;;0.63;;
68633;SDS011;55625;47.072;22.192;2023-03-11T14:15:44;0.90;;;0.40;;
68633;SDS011;55625;47.072;22.192;2023-03-11T14:18:24;1.50;;;0.30;;
68633;SDS011;55625;47.072;22.192;2023-03-11T14:20:56;1.02;;;0.55;;
68633;SDS011;55625;47.072;22.192;2023-03-11T14:23:25;0.90;;;0.30;;
68633;SDS011;55625;47.072;22.192;2023-03-11T14:25:57;1.63;;;1.02;;
68633;SDS011;55625;47.072;22.192;2023-03-11T14:28:39;1.80;;;1.50;;
68633;SDS011;55625;47.072;22.192;2023-03-11T14:31:19;2.53;;;0.88;;
68633;SDS011;55625;47.072;22.192;2023-03-11T14:33:56;0.90;;;0.38;;
68633;SDS011;55625;47.072;22.192;2023-03-11T14:36:38;0.95;;;0.32;;
68633;SDS011;55625;47.072;22.192;2023-03-11T14:39:26;1.08;;;0.20;;
68633;SDS011;55625;47.072;22.192;2023-03-11T14:44:43;1.45;;;0.63;;
68633;SDS011;55625;47.072;22.192;2023-03-11T14:47:30;0.98;;;0.38;;
68633;SDS011;55625;47.072;22.192;2023-03-11T14:49:57;0.98;;;0.50;;
68633;SDS011;55625;47.072;22.192;2023-03-11T14:52:29;0.90;;;0.30;;
68633;SDS011;55625;47.072;22.192;2023-03-11T14:55:15;1.20;;;0.50;;
68633;SDS011;55625;47.072;22.192;2023-03-11T15:03:58;1.70;;;0.95;;
68633;SDS011;55625;47.072;22.192;2023-03-11T15:06:56;0.93;;;0.32;;
68633;SDS011;55625;47.072;22.192;2023-03-11T15:09:23;0.90;;;0.40;;
68633;SDS011;55625;47.072;22.192;2023-03-11T15:14:29;1.17;;;0.55;;
68633;SDS011;55625;47.072;22.192;2023-03-11T15:19:45;1.10;;;0.57;;
68633;SDS011;55625;47.072;22.192;2023-03-11T15:24:56;1.35;;;0.93;;
68633;SDS011;55625;47.072;22.192;2023-03-11T15:29:55;1.65;;;1.10;;
68633;SDS011;55625;47.072;22.192;2023-03-11T15:37:34;1.15;;;0.50;;
68633;SDS011;55625;47.072;22.192;2023-03-11T15:40:34;1.10;;;0.45;;
68633;SDS011;55625;47.072;22.192;2023-03-11T15:45:38;1.13;;;0.60;;
68633;SDS011;55625;47.072;22.192;2023-03-11T15:48:04;3.10;;;0.40;;
68633;SDS011;55625;47.072;22.192;2023-03-11T15:50:33;0.90;;;0.22;;
68633;SDS011;55625;47.072;22.192;2023-03-11T15:52:58;1.88;;;0.55;;
68633;SDS011;55625;47.072;22.192;2023-03-11T15:55:25;2.17;;;0.45;;
68633;SDS011;55625;47.072;22.192;2023-03-11T15:57:54;1.27;;;0.40;;
68633;SDS011;55625;47.072;22.192;2023-03-11T16:00:30;1.50;;;0.68;;
68633;SDS011;55625;47.072;22.192;2023-03-11T16:02:57;1.52;;;0.82;;
68633;SDS011;55625;47.072;22.192;2023-03-11T16:05:23;1.63;;;1.23;;
68633;SDS011;55625;47.072;22.192;2023-03-11T16:07:50;2.03;;;0.63;;
68633;SDS011;55625;47.072;22.192;2023-03-11T16:10:16;0.80;;;0.35;;
68633;SDS011;55625;47.072;22.192;2023-03-11T16:12:46;1.50;;;0.90;;
68633;SDS011;55625;47.072;22.192;2023-03-11T16:17:56;0.98;;;0.38;;
68633;SDS011;55625;47.072;22.192;2023-03-11T16:20:25;0.93;;;0.33;;
68633;SDS011;55625;47.072;22.192;2023-03-11T16:22:57;8.75;;;1.58;;
68633;SDS011;55625;47.072;22.192;2023-03-11T16:25:27;1.10;;;0.50;;
68633;SDS011;55625;47.072;22.192;2023-03-11T16:27:57;2.13;;;0.70;;
68633;SDS011;55625;47.072;22.192;2023-03-11T16:30:24;1.77;;;0.68;;
68633;SDS011;55625;47.072;22.192;2023-03-11T16:32:53;1.73;;;1.00;;
68633;SDS011;55625;47.072;22.192;2023-03-11T16:35:19;2.65;;;0.85;;
68633;SDS011;55625;47.072;22.192;2023-03-11T16:37:45;2.95;;;0.88;;
68633;SDS011;55625;47.072;22.192;2023-03-11T16:40:13;1.50;;;0.52;;
68633;SDS011;55625;47.072;22.192;2023-03-11T16:42:41;1.23;;;0.40;;
68633;SDS011;55625;47.072;22.192;2023-03-11T16:45:08;3.10;;;1.30;;
68633;SDS011;55625;47.072;22.192;2023-03-11T16:47:39;4.75;;;1.35;;
68633;SDS011;55625;47.072;22.192;2023-03-11T16:50:05;4.35;;;1.77;;
68633;SDS011;55625;47.072;22.192;2023-03-11T16:52:33;3.17;;;1.15;;
68633;SDS011;55625;47.072;22.192;2023-03-11T16:54:59;2.53;;;0.83;;
68633;SDS011;55625;47.072;22.192;2023-03-11T16:57:25;8.23;;;2.15;;
68633;SDS011;55625;47.072;22.192;2023-03-11T16:59:51;3.10;;;1.33;;
68633;SDS011;55625;47.072;22.192;2023-03-11T17:02:17;1.20;;;0.60;;
68633;SDS011;55625;47.072;22.192;2023-03-11T17:04:43;3.38;;;1.05;;
68633;SDS011;55625;47.072;22.192;2023-03-11T17:07:09;2.08;;;1.23;;
68633;SDS011;55625;47.072;22.192;2023-03-11T17:09:35;4.75;;;0.35;;
68633;SDS011;55625;47.072;22.192;2023-03-11T17:12:02;2.38;;;0.63;;
68633;SDS011;55625;47.072;22.192;2023-03-11T17:14:29;3.70;;;0.63;;
68633;SDS011;55625;47.072;22.192;2023-03-11T17:16:56;3.17;;;1.30;;
68633;SDS011;55625;47.072;22.192;2023-03-11T17:19:22;5.28;;;0.98;;
68633;SDS011;55625;47.072;22.192;2023-03-11T17:21:49;1.45;;;0.88;;
68633;SDS011;55625;47.072;22.192;2023-03-11T17:24:15;1.55;;;0.52;;
68633;SDS011;55625;47.072;22.192;2023-03-11T17:26:41;1.53;;;0.40;;
68633;SDS011;55625;47.072;22.192;2023-03-11T17:29:07;1.10;;;0.50;;